createdAt,value
2023-04-05T00:01:55.725Z,8.58
2023-04-05T00:05:00.906Z,8.53
2023-04-05T00:08:08.501Z,8.60
2023-04-05T00:11:12.057Z,8.63
2023-04-05T00:14:15.649Z,8.51
2023-04-05T00:17:19.345Z,8.57
2023-04-05T00:20:22.970Z,8.38
2023-04-05T00:23:28.473Z,8.37
2023-04-05T00:26:32.391Z,8.46
2023-04-05T00:29:36.154Z,8.35
2023-04-05T00:32:39.850Z,8.34
2023-04-05T00:35:43.592Z,8.51
2023-04-05T00:38:50.801Z,8.58
2023-04-05T00:41:54.312Z,8.49
2023-04-05T00:44:57.865Z,8.59
2023-04-05T00:48:02.084Z,8.51
2023-04-05T00:51:09.678Z,8.72
2023-04-05T00:54:15.882Z,8.62
2023-04-05T00:57:20.322Z,8.58
2023-04-05T01:00:24.662Z,8.43
2023-04-05T01:03:31.349Z,8.48
2023-04-05T01:07:01.180Z,8.40
2023-04-05T01:10:09.410Z,8.54
2023-04-05T01:13:13.089Z,8.13
2023-04-05T01:16:17.072Z,8.29
2023-04-05T01:19:20.706Z,8.59
2023-04-05T01:23:06.316Z,8.25
2023-04-05T01:26:42.263Z,8.31
2023-04-05T01:30:05.110Z,8.44
2023-04-05T01:33:16.612Z,8.30
2023-04-05T01:36:25.401Z,8.28
2023-04-05T01:39:29.771Z,8.44
2023-04-05T01:42:33.523Z,8.43
2023-04-05T01:45:38.621Z,8.45
2023-04-05T01:48:42.148Z,8.56
2023-04-05T01:51:45.851Z,8.44
2023-04-05T01:54:49.396Z,8.33
2023-04-05T01:57:53.865Z,8.33
2023-04-05T02:00:59.163Z,8.36
2023-04-05T02:04:02.700Z,8.09
2023-04-05T02:07:07.755Z,8.24
2023-04-05T02:10:11.615Z,8.19
2023-04-05T02:13:16.279Z,8.13
2023-04-05T02:16:21.381Z,7.95
2023-04-05T02:19:26.169Z,7.97
2023-04-05T02:22:30.026Z,8.09
2023-04-05T02:25:33.958Z,8.13
2023-04-05T02:28:37.472Z,8.02
2023-04-05T02:31:42.572Z,8.02
2023-04-05T02:34:46.475Z,7.82
2023-04-05T02:37:50.147Z,7.68
2023-04-05T02:40:53.714Z,7.71
2023-04-05T02:43:57.158Z,7.88
2023-04-05T02:47:02.068Z,7.80
2023-04-05T02:50:09.800Z,7.79
2023-04-05T02:53:19.557Z,7.63
2023-04-05T02:56:30.644Z,7.86
2023-04-05T02:59:36.852Z,7.71
2023-04-05T03:02:42.973Z,7.68
2023-04-05T03:05:47.373Z,7.51
2023-04-05T03:08:52.265Z,7.14
2023-04-05T03:12:03.824Z,7.72
2023-04-05T03:15:11.044Z,7.97
2023-04-05T03:18:20.765Z,7.63
2023-04-05T03:21:26.762Z,7.86
2023-04-05T03:24:42.723Z,7.78
2023-04-05T03:27:49.094Z,7.76
2023-04-05T03:30:54.624Z,7.95
2023-04-05T03:33:59.936Z,7.98
2023-04-05T03:37:07.790Z,7.89
2023-04-05T03:40:20.994Z,8.01
2023-04-05T03:43:25.780Z,7.72
2023-04-05T03:46:29.345Z,7.82
2023-04-05T03:49:34.392Z,7.82
2023-04-05T03:52:37.918Z,7.77
2023-04-05T03:55:43.552Z,7.70
2023-04-05T03:58:47.901Z,7.58
2023-04-05T04:01:53.490Z,7.53
2023-04-05T04:05:01.240Z,7.70
2023-04-05T04:08:05.308Z,7.46
2023-04-05T04:11:09.068Z,7.61
2023-04-05T04:14:15.697Z,7.51
2023-04-05T04:17:48.382Z,7.62
2023-04-05T04:21:12.518Z,7.63
2023-04-05T04:24:46.583Z,7.54
2023-04-05T04:28:06.886Z,7.54
2023-04-05T04:31:29.433Z,7.43
2023-04-05T04:34:34.876Z,7.29
2023-04-05T04:38:10.548Z,7.31
2023-04-05T04:41:27.349Z,7.01
2023-04-05T04:44:46.273Z,7.67
2023-04-05T04:48:00.160Z,7.55
2023-04-05T04:51:15.988Z,7.48
2023-04-05T04:54:22.602Z,7.38
2023-04-05T04:57:27.318Z,7.73
2023-04-05T05:00:31.693Z,7.67
2023-04-05T05:03:36.769Z,7.66
2023-04-05T05:06:40.541Z,7.56
2023-04-05T05:09:45.908Z,7.93
2023-04-05T05:12:49.892Z,8.05
2023-04-05T05:15:53.845Z,8.19
2023-04-05T05:18:57.637Z,7.81
2023-04-05T05:22:04.652Z,8.19
2023-04-05T05:25:12.564Z,8.03
2023-04-05T05:28:16.809Z,8.21
2023-04-05T05:31:20.484Z,8.19
2023-04-05T05:34:24.718Z,8.05
2023-04-05T05:37:33.752Z,8.41
2023-04-05T05:40:39.182Z,8.21
2023-04-05T05:43:42.996Z,8.16
2023-04-05T05:46:46.775Z,8.12
2023-04-05T05:49:50.939Z,8.30
2023-04-05T05:52:54.871Z,8.42
2023-04-05T05:56:01.288Z,8.66
2023-04-05T05:59:05.134Z,8.63
2023-04-05T06:02:15.302Z,8.78
2023-04-05T06:05:19.344Z,8.72
2023-04-05T06:08:23.086Z,8.82
2023-04-05T06:11:28.335Z,8.55
2023-04-05T06:14:31.983Z,8.57
2023-04-05T06:17:42.141Z,8.75
2023-04-05T06:20:45.901Z,8.61
2023-04-05T06:23:49.856Z,8.65
2023-04-05T06:26:55.047Z,8.86
2023-04-05T06:30:01.385Z,8.62
2023-04-05T06:33:05.156Z,8.66
2023-04-05T06:36:09.457Z,8.68
2023-04-05T06:39:13.719Z,8.82
2023-04-05T06:42:19.010Z,9.07
2023-04-05T06:45:29.709Z,8.87
2023-04-05T06:48:35.246Z,9.10
2023-04-05T06:51:38.962Z,9.04
2023-04-05T06:54:42.768Z,9.13
2023-04-05T06:57:47.910Z,9.02
2023-04-05T07:00:51.694Z,9.01
2023-04-05T07:03:55.947Z,9.15
2023-04-05T07:07:02.282Z,8.88
2023-04-05T07:10:06.745Z,9.00
2023-04-05T07:13:11.799Z,8.95
2023-04-05T07:16:15.583Z,8.93
2023-04-05T07:19:19.349Z,8.98
2023-04-05T07:22:23.019Z,8.98
2023-04-05T07:25:26.750Z,9.03
2023-04-05T07:28:32.152Z,9.41
2023-04-05T07:31:35.996Z,9.30
2023-04-05T07:34:39.673Z,9.35
2023-04-05T07:37:43.423Z,9.33
2023-04-05T07:40:47.234Z,9.33
2023-04-05T07:43:52.454Z,9.54
2023-04-05T07:46:56.214Z,9.48
2023-04-05T07:50:00.081Z,9.72
2023-04-05T07:53:03.919Z,9.93
2023-04-05T07:56:08.776Z,9.98
2023-04-05T07:59:15.009Z,9.63
2023-04-05T08:02:19.210Z,9.68
2023-04-05T08:05:23.067Z,9.82
2023-04-05T08:08:26.890Z,9.93
2023-04-05T08:11:30.714Z,10.01
2023-04-05T08:14:36.048Z,10.07
2023-04-05T08:17:39.745Z,10.46
2023-04-05T08:20:43.635Z,10.62
2023-04-05T08:23:47.430Z,10.82
2023-04-05T08:26:51.128Z,10.88
2023-04-05T08:29:56.281Z,10.54
2023-04-05T08:33:00.200Z,10.68
2023-04-05T08:36:07.731Z,10.92
2023-04-05T08:39:11.730Z,11.02
2023-04-05T08:42:18.888Z,10.81
2023-04-05T08:45:25.931Z,10.46
2023-04-05T08:48:33.131Z,10.28
2023-04-05T08:51:40.545Z,10.29
2023-04-05T08:54:44.277Z,10.49
2023-04-05T08:57:55.736Z,10.57
2023-04-05T09:01:01.769Z,10.47
2023-04-05T09:04:08.439Z,10.27
2023-04-05T09:07:14.881Z,10.77
2023-04-05T09:10:20.976Z,11.24
2023-04-05T09:13:24.625Z,10.85
2023-04-05T09:16:30.466Z,10.91
2023-04-05T09:19:34.220Z,10.82
2023-04-05T09:22:45.487Z,10.72
2023-04-05T09:25:52.852Z,10.93
2023-04-05T09:28:56.665Z,10.66
2023-04-05T09:32:02.339Z,10.63
2023-04-05T09:35:06.925Z,10.82
2023-04-05T09:38:12.494Z,10.69
2023-04-05T09:41:16.225Z,10.75
2023-04-05T09:44:20.005Z,10.75
2023-04-05T09:47:27.810Z,10.73
2023-04-05T09:50:35.227Z,10.50
2023-04-05T09:53:59.128Z,10.50
2023-04-05T09:57:03.644Z,10.23
2023-04-05T10:00:10.819Z,10.30
2023-04-05T10:03:27.650Z,10.30
2023-04-05T10:06:37.841Z,10.45
2023-04-05T10:09:42.528Z,10.45
2023-04-05T10:12:48.430Z,10.47
2023-04-05T10:15:54.447Z,10.25
2023-04-05T10:18:59.738Z,10.69
2023-04-05T10:22:05.618Z,10.47
2023-04-05T10:25:19.728Z,10.70
2023-04-05T10:28:31.562Z,10.78
2023-04-05T10:31:41.929Z,10.69
2023-04-05T10:34:59.073Z,10.67
2023-04-05T10:38:13.605Z,10.54
2023-04-05T10:41:17.731Z,10.39
2023-04-05T10:44:26.474Z,10.20
2023-04-05T10:47:33.291Z,10.49
2023-04-05T10:50:39.907Z,10.26
2023-04-05T10:53:44.529Z,10.35
2023-04-05T10:56:48.778Z,10.32
2023-04-05T10:59:55.048Z,10.62
2023-04-05T11:02:58.951Z,10.57
2023-04-05T11:06:22.826Z,10.48
2023-04-05T11:09:27.783Z,10.45
2023-04-05T11:13:06.325Z,10.60
2023-04-05T11:16:10.710Z,10.74
2023-04-05T11:19:14.571Z,10.60
2023-04-05T11:22:27.675Z,10.47
2023-04-05T11:25:31.554Z,10.55
2023-04-05T11:28:39.771Z,10.86
2023-04-05T11:32:02.119Z,10.70
2023-04-05T11:35:08.278Z,10.67
2023-04-05T11:38:23.610Z,10.65
2023-04-05T11:41:34.982Z,10.43
2023-04-05T11:44:47.078Z,10.72
2023-04-05T11:47:51.279Z,10.87
2023-04-05T11:50:56.191Z,10.95
2023-04-05T11:54:01.321Z,10.70
2023-04-05T11:57:05.609Z,10.70
2023-04-05T12:00:10.500Z,10.83
2023-04-05T12:03:15.777Z,10.92
2023-04-05T12:06:23.889Z,10.83
2023-04-05T12:09:29.109Z,10.96
2023-04-05T12:12:38.551Z,10.81
2023-04-05T12:15:42.574Z,10.44
2023-04-05T12:18:46.560Z,10.65
2023-04-05T12:21:50.265Z,10.54
2023-04-05T12:24:55.532Z,10.62
2023-04-05T12:28:06.143Z,10.70
2023-04-05T12:31:12.449Z,10.45
2023-04-05T12:34:24.909Z,10.37
2023-04-05T12:37:29.731Z,10.50
2023-04-05T12:40:36.205Z,9.93
2023-04-05T12:43:41.097Z,10.26
2023-04-05T12:46:47.110Z,10.21
2023-04-05T12:49:50.831Z,10.31
2023-04-05T12:52:56.240Z,10.27
2023-04-05T12:56:02.032Z,10.22
2023-04-05T12:59:08.792Z,10.16
2023-04-05T13:02:12.663Z,10.01
2023-04-05T13:05:16.452Z,10.07
2023-04-05T13:08:20.554Z,10.15
2023-04-05T13:11:26.072Z,9.92
2023-04-05T13:14:29.845Z,9.96
2023-04-05T13:17:33.662Z,10.05
2023-04-05T13:20:38.013Z,9.97
2023-04-05T13:23:42.454Z,10.11
2023-04-05T13:26:47.523Z,10.13
2023-04-05T13:29:51.258Z,10.27
2023-04-05T13:32:54.995Z,10.16
2023-04-05T13:35:58.838Z,10.21
2023-04-05T13:39:02.518Z,10.34
2023-04-05T13:42:07.872Z,10.39
2023-04-05T13:45:12.341Z,10.13
2023-04-05T13:48:16.014Z,10.44
2023-04-05T13:51:19.722Z,10.63
2023-04-05T13:54:23.371Z,10.76
2023-04-05T13:57:28.695Z,10.63
2023-04-05T14:00:32.404Z,10.90
2023-04-05T14:03:36.226Z,10.69
2023-04-05T14:06:40.153Z,10.50
2023-04-05T14:09:45.009Z,10.59
2023-04-05T14:12:50.003Z,10.54
2023-04-05T14:15:53.996Z,10.56
2023-04-05T14:18:57.718Z,10.38
2023-04-05T14:22:02.268Z,10.37
2023-04-05T14:25:08.328Z,10.21
2023-04-05T14:28:13.621Z,10.22
2023-04-05T14:31:17.606Z,10.47
2023-04-05T14:34:21.505Z,10.39
2023-04-05T14:37:25.272Z,10.22
2023-04-05T14:40:29.037Z,10.42
2023-04-05T14:43:34.300Z,10.24
2023-04-05T14:46:38.210Z,10.24
2023-04-05T14:49:42.287Z,9.83
2023-04-05T14:52:46.851Z,10.05
2023-04-05T14:55:50.652Z,10.00
2023-04-05T14:58:56.008Z,9.89
2023-04-05T15:01:59.835Z,9.92
2023-04-05T15:05:03.762Z,10.11
2023-04-05T15:08:07.536Z,10.00
2023-04-05T15:11:11.403Z,9.96
2023-04-05T15:14:28.660Z,10.06
2023-04-05T15:17:35.351Z,10.32
2023-04-05T15:20:39.600Z,10.16
2023-04-05T15:23:43.336Z,10.24
2023-04-05T15:26:47.045Z,9.97
2023-04-05T15:29:52.336Z,10.31
2023-04-05T15:32:57.034Z,10.17
2023-04-05T15:36:00.898Z,10.12
2023-04-05T15:39:05.494Z,9.98
2023-04-05T15:42:09.367Z,10.16
2023-04-05T15:45:14.699Z,10.16
2023-04-05T15:48:18.408Z,10.20
2023-04-05T15:51:22.195Z,10.22
2023-04-05T15:54:26.001Z,9.97
2023-04-05T15:57:29.756Z,10.05
2023-04-05T16:00:35.091Z,10.21
2023-04-05T16:03:39.032Z,10.02
2023-04-05T16:06:43.683Z,10.02
2023-04-05T16:09:47.440Z,10.08
2023-04-05T16:12:51.364Z,9.97
2023-04-05T16:15:56.721Z,9.85
2023-04-05T16:19:01.536Z,9.94
2023-04-05T16:22:06.401Z,10.02
2023-04-05T16:25:10.339Z,9.89
2023-04-05T16:28:14.395Z,9.97
2023-04-05T16:31:19.702Z,9.80
2023-04-05T16:34:23.521Z,9.87
2023-04-05T16:37:27.212Z,9.84
2023-04-05T16:40:31.417Z,9.86
2023-04-05T16:43:35.313Z,9.74
2023-04-05T16:46:40.623Z,9.65
2023-04-05T16:49:44.369Z,9.65
2023-04-05T16:52:48.094Z,9.65
2023-04-05T16:55:51.982Z,9.68
2023-04-05T16:58:56.991Z,9.69
2023-04-05T17:02:02.289Z,9.59
2023-04-05T17:05:07.135Z,9.71
2023-04-05T17:08:10.979Z,9.24
2023-04-05T17:11:14.819Z,9.50
2023-04-05T17:14:18.640Z,9.61
2023-04-05T17:17:23.935Z,9.43
2023-04-05T17:20:27.763Z,9.35
2023-04-05T17:23:31.459Z,9.18
2023-04-05T17:26:35.157Z,9.31
2023-04-05T17:29:40.257Z,9.25
2023-04-05T17:32:45.529Z,9.17
2023-04-05T17:35:49.332Z,9.16
2023-04-05T17:38:53.185Z,9.01
2023-04-05T17:41:57.000Z,9.20
2023-04-05T17:45:00.852Z,9.18
2023-04-05T17:48:06.648Z,9.18
2023-04-05T17:51:10.840Z,9.16
2023-04-05T17:54:15.730Z,9.22
2023-04-05T17:57:19.706Z,9.02
2023-04-05T18:00:23.831Z,8.89
2023-04-05T18:03:29.801Z,8.98
2023-04-05T18:06:33.616Z,8.94
2023-04-05T18:09:38.702Z,8.88
2023-04-05T18:12:42.557Z,8.85
2023-04-05T18:15:46.325Z,8.85
2023-04-05T18:18:51.765Z,8.72
2023-04-05T18:21:55.547Z,8.60
2023-04-05T18:24:59.253Z,8.84
2023-04-05T18:28:06.857Z,8.63
2023-04-05T18:31:20.251Z,8.68
2023-04-05T18:34:26.900Z,8.49
2023-04-05T18:37:30.707Z,8.36
2023-04-05T18:40:34.583Z,8.51
2023-04-05T18:43:38.309Z,8.67
2023-04-05T18:46:42.118Z,8.30
2023-04-05T18:49:47.306Z,8.33
2023-04-05T18:52:51.098Z,8.33
2023-04-05T18:55:55.889Z,8.31
2023-04-05T18:58:59.748Z,8.23
2023-04-05T19:02:05.239Z,8.14
2023-04-05T19:05:11.641Z,8.19
2023-04-05T19:08:15.371Z,8.02
2023-04-05T19:11:19.384Z,8.04
2023-04-05T19:17:45.424Z,7.91
2023-04-05T19:20:54.922Z,7.55
2023-04-05T19:23:59.037Z,7.83
2023-04-05T19:27:03.046Z,7.80
2023-04-05T19:30:08.282Z,7.75
2023-04-05T19:33:12.156Z,7.91
2023-04-05T19:36:17.454Z,7.79
2023-04-05T19:39:25.623Z,7.86
2023-04-05T19:45:33.990Z,7.69
2023-04-05T19:48:40.037Z,7.72
2023-04-05T19:51:45.147Z,7.71
2023-04-05T19:54:48.890Z,7.59
2023-04-05T19:57:52.501Z,7.59
2023-04-05T20:00:56.568Z,7.44
2023-04-05T20:04:00.334Z,7.39
2023-04-05T20:07:09.192Z,7.36
2023-04-05T20:10:17.378Z,6.83
2023-04-05T20:13:21.249Z,7.10
2023-04-05T20:16:28.024Z,7.07
2023-04-05T20:19:33.356Z,6.79
2023-04-05T20:22:39.473Z,6.92
2023-04-05T20:25:46.675Z,6.63
2023-04-05T20:28:54.774Z,6.65
2023-04-05T20:31:58.642Z,6.80
2023-04-05T20:35:02.442Z,6.64
2023-04-05T20:38:07.670Z,6.48
2023-04-05T20:41:13.605Z,6.70
2023-04-05T20:44:17.520Z,6.59
2023-04-05T20:47:21.305Z,6.58
2023-04-05T20:50:25.015Z,6.57
2023-04-05T20:53:30.575Z,6.45
2023-04-05T20:56:34.262Z,6.40
2023-04-05T20:59:38.065Z,6.08
2023-04-05T21:02:41.965Z,6.27
2023-04-05T21:05:45.725Z,6.07
2023-04-05T21:09:07.141Z,6.07
2023-04-05T21:12:12.846Z,6.30
2023-04-05T21:15:16.981Z,6.34
2023-04-05T21:18:21.127Z,6.25
2023-04-05T21:21:25.135Z,6.30
2023-04-05T21:24:29.135Z,6.21
2023-04-05T21:27:34.750Z,6.09
2023-04-05T21:30:38.943Z,6.09
2023-04-05T21:33:43.058Z,6.04
2023-04-05T21:36:47.175Z,6.06
2023-04-05T21:39:51.122Z,6.27
2023-04-05T21:42:56.559Z,6.05
2023-04-05T21:46:02.055Z,6.04
2023-04-05T21:49:06.333Z,6.02
2023-04-05T21:52:10.460Z,5.90
2023-04-05T21:55:14.846Z,5.84
2023-04-05T21:58:20.427Z,6.32
2023-04-05T22:01:24.594Z,6.21
2023-04-05T22:04:29.479Z,6.17
2023-04-05T22:07:33.716Z,6.30
2023-04-05T22:10:37.977Z,6.17
2023-04-05T22:13:45.330Z,6.37
2023-04-05T22:16:49.346Z,6.14
2023-04-05T22:19:53.348Z,6.37
2023-04-05T22:22:57.529Z,6.43
2023-04-05T22:26:01.598Z,6.05
2023-04-05T22:29:07.814Z,6.02
2023-04-05T22:32:12.173Z,6.08
2023-04-05T22:35:16.211Z,6.22
2023-04-05T22:38:20.217Z,6.38
2023-04-05T22:41:24.154Z,5.85
2023-04-05T22:44:29.507Z,6.08
2023-04-05T22:47:33.546Z,6.28
2023-04-05T22:50:37.605Z,6.39
2023-04-05T22:53:43.574Z,6.36
2023-04-05T22:56:47.371Z,6.39
2023-04-05T22:59:52.712Z,6.39
2023-04-05T23:02:56.555Z,6.21
2023-04-05T23:06:00.430Z,6.33
2023-04-05T23:09:05.156Z,6.29
2023-04-05T23:12:11.357Z,6.30
2023-04-05T23:15:16.784Z,6.31
2023-04-05T23:18:22.972Z,6.35
2023-04-05T23:21:27.044Z,6.32
2023-04-05T23:24:30.954Z,6.22
2023-04-05T23:27:34.875Z,6.22
2023-04-05T23:30:40.341Z,6.28
2023-04-05T23:33:44.214Z,6.00
2023-04-05T23:36:48.106Z,5.97
2023-04-05T23:39:52.078Z,5.98
2023-04-05T23:42:55.975Z,5.93
2023-04-05T23:46:01.404Z,6.09
2023-04-05T23:49:05.199Z,6.12
2023-04-05T23:52:09.038Z,5.67
2023-04-05T23:55:12.909Z,5.84
2023-04-05T23:58:16.850Z,5.92
